createdAt,value
2023-04-01T00:01:56.420Z,988.16
2023-04-01T00:05:04.310Z,988.14
2023-04-01T00:08:11.766Z,988.17
2023-04-01T00:11:20.835Z,988.17
2023-04-01T00:14:28.881Z,988.14
2023-04-01T00:17:36.158Z,988.15
2023-04-01T00:20:45.559Z,988.15
2023-04-01T00:23:52.778Z,988.18
2023-04-01T00:27:00.017Z,988.13
2023-04-01T00:30:09.383Z,988.16
2023-04-01T00:33:16.944Z,988.11
2023-04-01T00:36:18.874Z,988.16
2023-04-01T00:39:26.562Z,988.13
2023-04-01T00:42:34.840Z,988.13
2023-04-01T00:45:42.330Z,988.16
2023-04-01T00:48:50.238Z,988.06
2023-04-01T00:51:58.617Z,988.08
2023-04-01T00:55:05.959Z,988.06
2023-04-01T00:58:12.904Z,988.10
2023-04-01T01:01:21.769Z,988.02
2023-04-01T01:04:29.011Z,988.13
2023-04-01T01:07:36.281Z,988.11
2023-04-01T01:10:44.891Z,988.19
2023-04-01T01:13:52.127Z,988.11
2023-04-01T01:16:59.849Z,988.09
2023-04-01T01:20:12.800Z,988.10
2023-04-01T01:23:13.158Z,988.08
2023-04-01T01:26:20.798Z,988.10
2023-04-01T01:29:27.617Z,988.10
2023-04-01T01:32:36.970Z,988.05
2023-04-01T01:35:44.692Z,988.09
2023-04-01T01:38:51.567Z,988.12
2023-04-01T01:42:00.706Z,988.12
2023-04-01T01:45:08.253Z,988.03
2023-04-01T01:48:15.539Z,988.09
2023-04-01T01:51:24.534Z,988.10
2023-04-01T01:54:31.920Z,988.14
2023-04-01T01:57:39.165Z,988.07
2023-04-01T02:00:46.786Z,988.14
2023-04-01T02:03:55.410Z,988.11
2023-04-01T02:07:02.654Z,988.16
2023-04-01T02:10:09.964Z,988.20
2023-04-01T02:13:18.984Z,988.17
2023-04-01T02:16:26.333Z,988.18
2023-04-01T02:19:33.336Z,988.24
2023-04-01T02:22:42.398Z,988.21
2023-04-01T02:25:49.412Z,988.21
2023-04-01T02:28:56.677Z,988.22
2023-04-01T02:32:05.729Z,988.20
2023-04-01T02:35:12.706Z,988.21
2023-04-01T02:38:20.363Z,988.22
2023-04-01T02:41:28.115Z,988.27
2023-04-01T02:44:36.540Z,988.37
2023-04-01T02:47:44.442Z,988.32
2023-04-01T02:50:51.711Z,988.40
2023-04-01T02:54:00.683Z,988.35
2023-04-01T02:57:08.615Z,988.36
2023-04-01T03:00:15.992Z,988.38
2023-04-01T03:03:24.939Z,988.36
2023-04-01T03:06:32.799Z,988.36
2023-04-01T03:09:39.845Z,988.42
2023-04-01T03:12:48.460Z,988.41
2023-04-01T03:20:09.304Z,988.40
2023-04-01T03:23:18.700Z,988.40
2023-04-01T03:26:26.216Z,988.42
2023-04-01T03:29:33.680Z,988.42
2023-04-01T03:32:42.687Z,988.43
2023-04-01T03:35:50.238Z,988.46
2023-04-01T03:38:58.109Z,988.47
2023-04-01T03:42:05.787Z,988.46
2023-04-01T03:45:14.800Z,988.49
2023-04-01T03:48:22.707Z,988.50
2023-04-01T03:51:30.136Z,988.50
2023-04-01T03:54:39.039Z,988.51
2023-04-01T03:57:46.814Z,988.52
2023-04-01T04:00:54.419Z,988.57
2023-04-01T04:04:02.917Z,988.62
2023-04-01T04:07:10.731Z,988.58
2023-04-01T04:10:18.322Z,988.62
2023-04-01T04:13:26.951Z,988.61
2023-04-01T04:16:34.644Z,988.62
2023-04-01T04:19:41.710Z,988.61
2023-04-01T04:22:51.058Z,988.61
2023-04-01T04:25:59.026Z,988.67
2023-04-01T04:29:06.270Z,988.70
2023-04-01T04:32:13.907Z,988.66
2023-04-01T04:35:23.233Z,988.67
2023-04-01T04:38:30.379Z,988.73
2023-04-01T04:41:38.178Z,988.78
2023-04-01T04:44:47.578Z,988.76
2023-04-01T04:47:54.764Z,988.78
2023-04-01T04:51:02.622Z,988.76
2023-04-01T04:54:11.508Z,988.81
2023-04-01T04:57:19.137Z,988.87
2023-04-01T05:00:26.695Z,988.85
2023-04-01T05:03:35.997Z,988.87
2023-04-01T05:06:43.551Z,988.84
2023-04-01T05:09:51.081Z,988.78
2023-04-01T05:12:58.721Z,988.89
2023-04-01T05:16:07.949Z,988.90
2023-04-01T05:19:15.817Z,988.96
2023-04-01T05:22:23.426Z,988.93
2023-04-01T05:25:32.609Z,988.94
2023-04-01T05:28:40.141Z,988.93
2023-04-01T05:31:47.859Z,989.05
2023-04-01T05:34:56.762Z,988.94
2023-04-01T05:38:04.464Z,988.95
2023-04-01T05:41:12.524Z,989.01
2023-04-01T05:44:21.597Z,989.08
2023-04-01T05:47:28.836Z,989.05
2023-04-01T05:50:36.441Z,989.13
2023-04-01T05:53:43.792Z,989.10
2023-04-01T05:56:53.327Z,989.16
2023-04-01T06:00:01.258Z,989.16
2023-04-01T06:03:08.567Z,989.17
2023-04-01T06:06:17.597Z,989.24
2023-04-01T06:09:25.475Z,989.22
2023-04-01T06:12:32.804Z,989.34
2023-04-01T06:15:42.048Z,989.34
2023-04-01T06:18:50.130Z,989.31
2023-04-01T06:21:57.996Z,989.31
2023-04-01T06:25:07.716Z,989.31
2023-04-01T06:28:09.248Z,989.31
2023-04-01T06:31:17.240Z,989.38
2023-04-01T06:34:25.500Z,989.37
2023-04-01T06:37:34.478Z,989.47
2023-04-01T06:40:42.215Z,989.34
2023-04-01T06:43:49.456Z,989.39
2023-04-01T06:46:58.681Z,989.42
2023-04-01T06:50:06.183Z,989.40
2023-04-01T06:53:13.493Z,989.41
2023-04-01T06:56:22.483Z,989.39
2023-04-01T06:59:30.025Z,989.39
2023-04-01T07:02:37.398Z,989.44
2023-04-01T07:05:47.020Z,989.48
2023-04-01T07:08:54.490Z,989.42
2023-04-01T07:12:02.018Z,989.51
2023-04-01T07:15:10.327Z,989.41
2023-04-01T07:18:19.153Z,989.50
2023-04-01T07:21:26.876Z,989.47
2023-04-01T07:24:34.611Z,989.43
2023-04-01T07:27:44.558Z,989.46
2023-04-01T07:30:52.464Z,989.46
2023-04-01T07:33:59.886Z,989.53
2023-04-01T07:37:08.853Z,989.52
2023-04-01T07:40:17.011Z,989.56
2023-04-01T07:43:24.700Z,989.53
2023-04-01T07:46:34.277Z,989.63
2023-04-01T07:49:41.682Z,989.57
2023-04-01T07:52:49.682Z,989.53
2023-04-01T07:55:57.792Z,989.61
2023-04-01T07:59:06.694Z,989.56
2023-04-01T08:02:14.515Z,989.62
2023-04-01T08:05:21.687Z,989.69
2023-04-01T08:08:30.491Z,989.70
2023-04-01T08:11:41.870Z,989.77
2023-04-01T08:14:42.231Z,989.74
2023-04-01T08:17:51.405Z,989.73
2023-04-01T08:20:59.649Z,989.76
2023-04-01T08:24:07.498Z,989.90
2023-04-01T08:27:16.568Z,989.94
2023-04-01T08:30:24.412Z,989.88
2023-04-01T08:33:31.989Z,989.99
2023-04-01T08:36:41.063Z,989.90
2023-04-01T08:39:49.078Z,989.95
2023-04-01T08:42:56.832Z,989.90
2023-04-01T08:46:04.139Z,989.93
2023-04-01T08:49:12.745Z,989.94
2023-04-01T08:52:21.307Z,990.03
2023-04-01T08:55:28.843Z,990.05
2023-04-01T08:58:37.938Z,990.04
2023-04-01T09:01:45.661Z,990.03
2023-04-01T09:04:52.920Z,990.06
2023-04-01T09:08:01.719Z,990.09
2023-04-01T09:11:09.717Z,990.11
2023-04-01T09:14:17.298Z,990.07
2023-04-01T09:17:26.388Z,990.08
2023-04-01T09:20:34.169Z,990.07
2023-04-01T09:23:41.351Z,989.99
2023-04-01T09:26:49.130Z,990.10
2023-04-01T09:29:58.103Z,990.08
2023-04-01T09:33:05.381Z,990.12
2023-04-01T09:36:13.170Z,990.13
2023-04-01T09:39:22.281Z,990.16
2023-04-01T09:42:29.512Z,990.20
2023-04-01T09:45:37.482Z,990.22
2023-04-01T09:48:46.556Z,990.22
2023-04-01T09:51:54.300Z,990.23
2023-04-01T09:55:02.073Z,990.22
2023-04-01T09:58:11.373Z,990.21
2023-04-01T10:01:19.786Z,990.27
2023-04-01T10:04:27.490Z,990.23
2023-04-01T10:07:35.173Z,990.20
2023-04-01T10:10:44.470Z,990.22
2023-04-01T10:13:51.606Z,990.35
2023-04-01T10:16:59.185Z,990.31
2023-04-01T10:20:08.410Z,990.33
2023-04-01T10:23:15.744Z,990.35
2023-04-01T10:26:23.389Z,990.32
2023-04-01T10:29:32.647Z,990.36
2023-04-01T10:32:39.919Z,990.38
2023-04-01T10:35:47.851Z,990.45
2023-04-01T10:38:57.082Z,990.45
2023-04-01T10:42:04.521Z,990.54
2023-04-01T10:45:12.517Z,990.58
2023-04-01T10:48:22.014Z,990.57
2023-04-01T10:51:29.314Z,990.59
2023-04-01T10:54:37.393Z,990.66
2023-04-01T10:57:44.973Z,990.69
2023-04-01T11:00:53.971Z,990.77
2023-04-01T11:04:01.780Z,990.73
2023-04-01T11:07:09.497Z,990.74
2023-04-01T11:10:18.606Z,990.77
2023-04-01T11:13:26.628Z,990.72
2023-04-01T11:16:34.187Z,990.78
2023-04-01T11:19:43.090Z,990.82
2023-04-01T11:22:51.105Z,990.85
2023-04-01T11:25:58.867Z,990.87
2023-04-01T11:29:07.585Z,990.91
2023-04-01T11:32:15.843Z,990.91
2023-04-01T11:35:24.000Z,990.89
2023-04-01T11:38:31.830Z,990.94
2023-04-01T11:41:40.951Z,990.98
2023-04-01T11:44:49.096Z,991.01
2023-04-01T11:47:56.290Z,991.09
2023-04-01T11:51:05.408Z,991.09
2023-04-01T11:54:13.158Z,991.08
2023-04-01T11:57:20.645Z,991.12
2023-04-01T12:00:29.927Z,991.18
2023-04-01T12:03:37.584Z,991.20
2023-04-01T12:06:45.244Z,991.16
2023-04-01T12:09:54.882Z,991.26
2023-04-01T12:13:02.479Z,991.25
2023-04-01T12:16:10.047Z,991.28
2023-04-01T12:19:17.672Z,991.34
2023-04-01T12:22:27.037Z,991.30
2023-04-01T12:25:34.917Z,991.39
2023-04-01T12:28:43.015Z,991.36
2023-04-01T12:31:52.677Z,991.40
2023-04-01T12:35:00.820Z,991.42
2023-04-01T12:38:09.023Z,991.40
2023-04-01T12:41:19.238Z,991.46
2023-04-01T12:44:27.164Z,991.52
2023-04-01T12:47:34.383Z,991.53
2023-04-01T12:50:43.515Z,991.58
2023-04-01T12:53:51.090Z,991.61
2023-04-01T12:56:58.906Z,991.66
2023-04-01T13:00:08.466Z,991.64
2023-04-01T13:03:15.984Z,991.69
2023-04-01T13:06:23.495Z,991.73
2023-04-01T13:09:31.501Z,991.80
2023-04-01T13:12:40.436Z,991.80
2023-04-01T13:15:48.129Z,991.86
2023-04-01T13:18:55.961Z,991.96
2023-04-01T13:22:04.725Z,992.00
2023-04-01T13:25:12.220Z,992.03
2023-04-01T13:28:19.792Z,992.03
2023-04-01T13:31:29.162Z,992.09
2023-04-01T13:34:36.734Z,992.10
2023-04-01T13:37:44.350Z,992.15
2023-04-01T13:41:02.298Z,992.19
2023-04-01T13:43:58.340Z,992.20
2023-04-01T13:47:05.616Z,992.22
2023-04-01T13:50:13.604Z,992.27
2023-04-01T13:53:22.413Z,992.38
2023-04-01T13:56:29.722Z,992.45
2023-04-01T13:59:37.655Z,992.44
2023-04-01T14:02:46.859Z,992.46
2023-04-01T14:05:54.400Z,992.50
2023-04-01T14:09:02.662Z,992.54
2023-04-01T14:12:11.230Z,992.56
2023-04-01T14:15:19.017Z,992.67
2023-04-01T14:18:28.465Z,992.68
2023-04-01T14:21:37.104Z,992.81
2023-04-01T14:24:44.996Z,992.85
2023-04-01T14:27:52.571Z,992.99
2023-04-01T14:31:00.533Z,993.03
2023-04-01T14:34:09.439Z,993.00
2023-04-01T14:37:16.997Z,993.04
2023-04-01T14:40:25.071Z,993.11
2023-04-01T14:43:33.679Z,993.10
2023-04-01T14:46:41.483Z,993.19
2023-04-01T14:49:49.502Z,993.30
2023-04-01T14:52:58.243Z,993.34
2023-04-01T14:56:06.748Z,993.31
2023-04-01T14:59:14.311Z,993.41
2023-04-01T15:02:23.088Z,993.50
2023-04-01T15:05:31.361Z,993.57
2023-04-01T15:08:39.084Z,993.58
2023-04-01T15:11:48.050Z,993.62
2023-04-01T15:14:56.118Z,993.73
2023-04-01T15:18:03.862Z,993.81
2023-04-01T15:21:12.327Z,993.81
2023-04-01T15:24:21.335Z,993.93
2023-04-01T15:27:29.277Z,993.96
2023-04-01T15:30:38.033Z,994.03
2023-04-01T15:33:37.898Z,994.10
2023-04-01T15:36:45.831Z,994.12
2023-04-01T15:39:53.016Z,994.21
2023-04-01T15:43:02.431Z,994.26
2023-04-01T15:46:10.298Z,994.29
2023-04-01T15:49:17.549Z,994.28
2023-04-01T15:52:27.173Z,994.32
2023-04-01T15:55:35.461Z,994.46
2023-04-01T15:58:42.904Z,994.43
2023-04-01T16:01:50.975Z,994.44
2023-04-01T16:05:00.578Z,994.58
2023-04-01T16:08:07.835Z,994.59
2023-04-01T16:11:16.508Z,994.76
2023-04-01T16:14:25.375Z,994.83
2023-04-01T16:17:32.905Z,994.79
2023-04-01T16:20:40.664Z,994.79
2023-04-01T16:23:49.950Z,994.81
2023-04-01T16:26:57.475Z,994.98
2023-04-01T16:30:04.991Z,995.08
2023-04-01T16:33:13.879Z,995.07
2023-04-01T16:36:21.308Z,995.16
2023-04-01T16:39:28.874Z,995.33
2023-04-01T16:42:36.941Z,995.26
2023-04-01T16:45:46.018Z,995.38
2023-04-01T16:48:53.649Z,995.35
2023-04-01T16:52:01.762Z,995.52
2023-04-01T16:55:10.774Z,995.53
2023-04-01T16:58:18.397Z,995.56
2023-04-01T17:01:26.207Z,995.64
2023-04-01T17:04:35.280Z,995.76
2023-04-01T17:07:42.738Z,995.81
2023-04-01T17:10:50.672Z,995.94
2023-04-01T17:13:59.419Z,995.94
2023-04-01T17:17:07.378Z,995.95
2023-04-01T17:20:15.043Z,995.98
2023-04-01T17:23:23.732Z,995.99
2023-04-01T17:26:31.825Z,996.26
2023-04-01T17:29:39.246Z,996.29
2023-04-01T17:32:47.008Z,996.38
2023-04-01T17:35:56.472Z,996.41
2023-04-01T17:39:03.738Z,996.46
2023-04-01T17:42:11.721Z,996.59
2023-04-01T17:45:21.253Z,996.66
2023-04-01T17:48:28.644Z,996.78
2023-04-01T17:51:36.477Z,996.77
2023-04-01T17:54:45.636Z,996.78
2023-04-01T17:57:53.660Z,996.80
2023-04-01T18:01:01.624Z,996.85
2023-04-01T18:04:10.709Z,997.02
2023-04-01T18:07:18.691Z,997.07
2023-04-01T18:10:26.401Z,997.19
2023-04-01T18:13:34.498Z,997.25
2023-04-01T18:16:43.596Z,997.41
2023-04-01T18:19:51.067Z,997.41
2023-04-01T18:22:59.000Z,997.42
2023-04-01T18:26:07.699Z,997.61
2023-04-01T18:29:15.590Z,997.56
2023-04-01T18:32:23.801Z,997.60
2023-04-01T18:35:32.392Z,997.66
2023-04-01T18:38:40.165Z,997.82
2023-04-01T18:41:47.842Z,997.84
2023-04-01T18:44:56.961Z,997.91
2023-04-01T18:48:05.048Z,998.06
2023-04-01T18:51:12.320Z,998.13
2023-04-01T18:54:19.992Z,998.20
2023-04-01T18:57:29.436Z,998.17
2023-04-01T19:00:36.703Z,998.30
2023-04-01T19:03:44.955Z,998.39
2023-04-01T19:06:54.329Z,998.44
2023-04-01T19:10:01.638Z,998.55
2023-04-01T19:13:09.424Z,998.58
2023-04-01T19:16:18.884Z,998.71
2023-04-01T19:19:26.044Z,998.78
2023-04-01T19:22:34.224Z,998.73
2023-04-01T19:25:43.522Z,998.88
2023-04-01T19:28:50.754Z,999.00
2023-04-01T19:31:58.590Z,998.91
2023-04-01T19:35:07.746Z,998.93
2023-04-01T19:38:15.964Z,999.07
2023-04-01T19:41:24.508Z,999.11
2023-04-01T19:44:31.674Z,999.07
2023-04-01T19:47:40.245Z,999.22
2023-04-01T19:50:47.699Z,999.31
2023-04-01T19:53:55.783Z,999.43
2023-04-01T19:57:04.848Z,999.42
2023-04-01T20:00:12.578Z,999.52
2023-04-01T20:03:20.672Z,999.67
2023-04-01T20:06:29.483Z,999.74
2023-04-01T20:09:39.050Z,999.69
2023-04-01T20:12:47.637Z,999.76
2023-04-01T20:15:56.935Z,999.96
2023-04-01T20:19:04.654Z,1000.03
2023-04-01T20:22:12.280Z,1000.22
2023-04-01T20:25:19.629Z,1000.03
2023-04-01T20:28:28.971Z,1000.24
2023-04-01T20:31:37.035Z,1000.27
2023-04-01T20:34:44.288Z,1000.30
2023-04-01T20:37:53.549Z,1000.45
2023-04-01T20:41:01.074Z,1000.53
2023-04-01T20:44:08.359Z,1000.49
2023-04-01T20:47:17.592Z,1000.56
2023-04-01T20:50:24.740Z,1000.79
2023-04-01T20:53:32.523Z,1000.82
2023-04-01T20:56:41.822Z,1000.77
2023-04-01T20:59:48.985Z,1000.93
2023-04-01T21:02:57.045Z,1001.07
2023-04-01T21:06:04.935Z,1001.17
2023-04-01T21:09:13.522Z,1001.13
2023-04-01T21:12:21.300Z,1001.37
2023-04-01T21:15:28.894Z,1001.43
2023-04-01T21:18:37.818Z,1001.34
2023-04-01T21:21:45.437Z,1001.49
2023-04-01T21:24:52.920Z,1001.60
2023-04-01T21:28:01.669Z,1001.58
2023-04-01T21:31:08.869Z,1001.72
2023-04-01T21:34:16.335Z,1001.71
2023-04-01T21:37:25.367Z,1001.79
2023-04-01T21:40:32.616Z,1001.84
2023-04-01T21:43:40.336Z,1001.91
2023-04-01T21:46:49.225Z,1002.06
2023-04-01T21:49:56.822Z,1002.02
2023-04-01T21:53:04.480Z,1002.03
2023-04-01T21:56:12.137Z,1001.98
2023-04-01T21:59:21.189Z,1002.08
2023-04-01T22:02:29.191Z,1002.21
2023-04-01T22:05:36.992Z,1002.26
2023-04-01T22:08:45.952Z,1002.29
2023-04-01T22:11:53.544Z,1002.43
2023-04-01T22:15:01.455Z,1002.50
2023-04-01T22:18:10.547Z,1002.53
2023-04-01T22:21:18.004Z,1002.53
2023-04-01T22:24:25.871Z,1002.69
2023-04-01T22:27:34.750Z,1002.68
2023-04-01T22:30:42.307Z,1002.81
2023-04-01T22:33:50.090Z,1002.84
2023-04-01T22:36:57.272Z,1002.95
2023-04-01T22:40:06.612Z,1003.03
2023-04-01T22:43:14.340Z,1003.15
2023-04-01T22:46:21.901Z,1003.22
2023-04-01T22:49:31.015Z,1003.34
2023-04-01T22:52:39.298Z,1003.39
2023-04-01T22:55:53.479Z,1003.38
2023-04-01T22:58:52.165Z,1003.40
2023-04-01T23:02:00.370Z,1003.45
2023-04-01T23:05:07.979Z,1003.47
2023-04-01T23:08:17.143Z,1003.49
2023-04-01T23:11:24.395Z,1003.56
2023-04-01T23:14:32.063Z,1003.62
2023-04-01T23:17:39.580Z,1003.69
2023-04-01T23:20:48.322Z,1003.68
2023-04-01T23:23:56.428Z,1003.83
2023-04-01T23:27:03.697Z,1003.85
2023-04-01T23:30:13.059Z,1003.84
2023-04-01T23:33:20.773Z,1003.87
2023-04-01T23:36:27.894Z,1003.96
2023-04-01T23:39:37.362Z,1004.04
2023-04-01T23:42:45.330Z,1004.08
2023-04-01T23:45:52.519Z,1004.16
2023-04-01T23:49:01.845Z,1004.21
2023-04-01T23:52:09.231Z,1004.19
2023-04-01T23:55:16.702Z,1004.34
2023-04-01T23:58:24.609Z,1004.36
